Airfield :
LOGIN :

Register | Disclaimer

   EN    FR    IT 

 










Legend :    VFR   Marginal VFR   IFR   Intensive IFR   Very Intensive IFR
Visi :
Ceiling :
>= 8 km
>= 3000ft
5 to 8 km
1000 to 3000 ft
1500m to 5 km
500 to 1000 ft
800 to 1500m
200 to 500 ft
< 800m
< 200 ft
Symbols :   Thunderstorms  Fog  Heavy snow  Heavy precipitations  Wind > 20 kt
SIGMETs :     Misc.  Thunderstorms  Icing  Turbulence  Mountain Waves  Volcanic Ashes






- Airport Elevation : 33 ft
- IATA code : MHZ


EGUN - RAF Mildenhall

CURRENT METAR :
  • 260819Z 34013G23KT 9999 -RA SCT038 BKN044 07/03 A2977 RMK AO2A RAB17 SLPNO WND DATA ESTMD ALTSG ESTMD RVRNO PWINO PNO FZRANO VISNO RWY11 CHINO RWY11 $

EXPIRED METARs :
  • 260756Z 34014G21KT 9999 FEW037 BKN043 07/02 A2977 RMK AO2A RAB40RAE56 SLPNO WND DATA ESTMD ALTSG ESTMD RVRNO PWINO PNO FZRANO VISNO RWY11 CHINO RWY11 $
  • 260741Z 34015G21KT 9999 -RA SCT041 OVC047 07/02 A2977 RMK AO2A RAB40 SLPNO WND DATA ESTMD ALTSG ESTMD RVRNO PWINO PNO FZRANO VISNO RWY11 CHINO RWY11 $
  • 260656Z 35010G23KT 9999 FEW040 BKN060 06/01 A2976 RMK AO2A SLP077 WND DATA ESTMD ALSTG/SLP ESTMD RVRNO $
  • 260556Z 34015G25KT 9999 BKN040 06/01 A2975 RMK AO2A SLP075 WND DATA ESTMD ALSTG/SLP ESTMD RVRNO $

TAF TAF EGUN
Valid from the 26 at 04:00 until the 27 at 10:00 UTC


260400Z 2604/2710 34020G30KT 9999 BKN040 520003 QNH2973INS
BECMG 2610/2611 34025G35KT 9000 -SHRA BKN020 610406 520003 QNH2977INS
BECMG 2616/2617 36015G25KT 9000 -SHRA BKN015 QNH2982INS
BECMG 2620/2621 35015G25KT 9999 NSW BKN020 QNH2984INS TX12/2615Z TN06/2606Z



MET'MAP, your aeronautical weather chart ! - Copyright ORBIFLY December 2007 - Disclaimer

ORBIFLY MET'MAP TEAM :

Programming & Development : Alexandra Zaïnal
Concept & original design : Baudouin d'Aumeries
Assistance for programming : Marc-Olivier Méhu
Technical & hardware support : Manuel Goepfert

Contact : metmap@orbifly.com




SOURCES & CREDITS :

   NOAA